createdAt,value
2018-12-14T00:01:34.450Z,81.10
2018-12-14T00:04:02.899Z,81.00
2018-12-14T00:06:31.359Z,81.00
2018-12-14T00:08:59.807Z,81.10
2018-12-14T00:11:28.271Z,80.90
2018-12-14T00:13:56.934Z,81.20
2018-12-14T00:16:25.519Z,81.00
2018-12-14T00:21:28.911Z,80.70
2018-12-14T00:23:57.359Z,80.90
2018-12-14T00:26:25.824Z,81.20
2018-12-14T00:28:54.284Z,81.10
2018-12-14T00:31:22.739Z,81.10
2018-12-14T00:33:51.195Z,81.20
2018-12-14T00:36:19.619Z,81.50
2018-12-14T00:38:48.186Z,81.00
2018-12-14T00:41:16.635Z,81.00
2018-12-14T00:43:45.131Z,81.20
2018-12-14T00:46:13.551Z,81.40
2018-12-14T00:48:41.963Z,81.60
2018-12-14T00:51:10.412Z,81.60
2018-12-14T00:53:38.875Z,81.60
2018-12-14T00:56:07.341Z,81.90
2018-12-14T00:58:35.759Z,81.30
2018-12-14T01:01:04.192Z,81.00
2018-12-14T01:03:32.631Z,80.80
2018-12-14T01:06:01.075Z,80.60
2018-12-14T01:08:29.495Z,80.10
2018-12-14T01:10:57.975Z,80.80
2018-12-14T01:13:26.443Z,80.20
2018-12-14T01:15:54.887Z,80.10
2018-12-14T01:18:23.343Z,80.40
2018-12-14T01:20:51.883Z,80.60
2018-12-14T01:23:20.343Z,81.00
2018-12-14T01:25:48.774Z,81.20
2018-12-14T01:28:17.191Z,81.20
2018-12-14T01:30:45.639Z,80.60
2018-12-14T01:33:14.045Z,80.60
2018-12-14T01:35:42.487Z,81.10
2018-12-14T01:38:10.974Z,80.90
2018-12-14T01:40:39.448Z,80.90
2018-12-14T01:43:07.858Z,81.20
2018-12-14T01:45:36.326Z,80.90
2018-12-14T01:48:04.751Z,80.90
2018-12-14T01:50:33.163Z,80.60
2018-12-14T01:53:01.627Z,80.60
2018-12-14T01:55:30.042Z,81.50
2018-12-14T01:57:58.671Z,80.90
2018-12-14T02:00:27.087Z,80.80
2018-12-14T02:02:55.535Z,80.90
2018-12-14T02:05:23.979Z,80.90
2018-12-14T02:07:52.399Z,80.90
2018-12-14T02:10:20.842Z,80.60
2018-12-14T02:12:49.247Z,80.90
2018-12-14T02:15:17.707Z,80.90
2018-12-14T02:17:46.155Z,80.80
2018-12-14T02:20:14.565Z,81.30
2018-12-14T02:22:43.055Z,81.20
2018-12-14T02:25:11.505Z,81.20
2018-12-14T02:27:39.930Z,80.40
2018-12-14T02:30:19.768Z,80.50
2018-12-14T02:32:48.176Z,80.90
2018-12-14T02:35:16.594Z,81.00
2018-12-14T02:37:45.255Z,81.10
2018-12-14T02:40:13.863Z,81.10
2018-12-14T02:42:42.281Z,80.80
2018-12-14T02:45:10.731Z,80.90
2018-12-14T02:47:39.154Z,80.30
2018-12-14T02:50:07.619Z,81.20
2018-12-14T02:52:36.071Z,80.40
2018-12-14T02:55:04.895Z,80.20
2018-12-14T02:57:33.347Z,79.90
2018-12-14T03:00:01.764Z,79.70
2018-12-14T03:02:30.222Z,80.20
2018-12-14T03:04:58.747Z,80.10
2018-12-14T03:07:27.233Z,80.00
2018-12-14T03:09:55.676Z,80.90
2018-12-14T03:12:26.865Z,81.40
2018-12-14T03:14:54.689Z,81.30
2018-12-14T03:17:23.972Z,80.90
2018-12-14T03:19:52.511Z,80.60
2018-12-14T03:22:21.311Z,80.40
2018-12-14T03:24:49.888Z,80.60
2018-12-14T03:27:18.936Z,80.90
2018-12-14T03:29:47.348Z,80.60
2018-12-14T03:32:16.013Z,80.50
2018-12-14T03:34:44.431Z,80.00
2018-12-14T03:37:12.883Z,79.70
2018-12-14T03:39:41.312Z,80.30
2018-12-14T03:42:09.784Z,80.30
2018-12-14T03:44:38.342Z,80.30
2018-12-14T03:47:06.788Z,80.60
2018-12-14T03:49:35.319Z,80.60
2018-12-14T03:52:03.864Z,80.70
2018-12-14T03:54:32.318Z,80.50
2018-12-14T03:57:00.739Z,80.30
2018-12-14T03:59:29.188Z,80.60
2018-12-14T04:01:57.731Z,80.20
2018-12-14T04:04:26.191Z,80.40
2018-12-14T04:06:54.714Z,80.40
2018-12-14T04:09:23.176Z,79.80
2018-12-14T04:11:51.633Z,80.00
2018-12-14T04:14:20.067Z,80.20
2018-12-14T04:16:48.531Z,79.90
2018-12-14T04:19:16.940Z,80.20
2018-12-14T04:21:45.404Z,80.30
2018-12-14T04:24:13.811Z,80.40
2018-12-14T04:26:42.246Z,80.00
2018-12-14T04:29:10.764Z,80.80
2018-12-14T04:31:39.255Z,81.00
2018-12-14T04:34:07.735Z,81.10
2018-12-14T04:36:36.532Z,81.00
2018-12-14T04:39:06.899Z,80.80
2018-12-14T04:41:35.329Z,81.00
2018-12-14T04:44:03.855Z,81.10
2018-12-14T04:46:32.307Z,81.20
2018-12-14T04:49:00.728Z,81.70
2018-12-14T04:51:29.282Z,81.50
2018-12-14T04:53:57.751Z,81.70
2018-12-14T04:56:26.315Z,81.90
2018-12-14T04:58:54.730Z,82.10
2018-12-14T05:01:23.181Z,82.00
2018-12-14T05:03:51.584Z,82.10
2018-12-14T05:06:20.047Z,81.80
2018-12-14T05:08:48.503Z,81.90
2018-12-14T05:11:16.959Z,81.60
2018-12-14T05:13:45.372Z,81.70
2018-12-14T05:16:13.810Z,82.00
2018-12-14T05:18:42.268Z,81.70
2018-12-14T05:21:10.687Z,81.80
2018-12-14T05:23:39.139Z,81.40
2018-12-14T05:26:07.567Z,81.50
2018-12-14T05:28:36.019Z,81.80
2018-12-14T05:31:04.471Z,81.90
2018-12-14T05:33:32.919Z,82.20
2018-12-14T05:36:01.416Z,82.30
2018-12-14T05:38:29.872Z,81.90
2018-12-14T05:40:58.315Z,82.30
2018-12-14T05:43:26.767Z,82.20
2018-12-14T05:45:55.247Z,82.50
2018-12-14T05:48:23.663Z,82.40
2018-12-14T05:50:52.079Z,82.30
2018-12-14T05:53:20.507Z,82.70
2018-12-14T05:55:48.955Z,82.80
2018-12-14T05:58:17.406Z,82.80
2018-12-14T06:00:45.851Z,83.00
2018-12-14T06:03:14.307Z,83.30
2018-12-14T06:05:42.755Z,83.60
2018-12-14T06:08:11.171Z,82.80
2018-12-14T06:10:39.647Z,82.80
2018-12-14T06:13:09.223Z,83.70
2018-12-14T06:15:38.518Z,82.90
2018-12-14T06:18:06.963Z,82.90
2018-12-14T06:20:35.372Z,83.40
2018-12-14T06:23:03.840Z,83.40
2018-12-14T06:25:32.273Z,83.40
2018-12-14T06:28:00.743Z,83.50
2018-12-14T06:30:29.154Z,83.60
2018-12-14T06:32:57.628Z,83.70
2018-12-14T06:35:26.037Z,83.80
2018-12-14T06:37:54.474Z,83.50
2018-12-14T06:40:22.974Z,83.30
2018-12-14T06:42:51.450Z,83.10
2018-12-14T06:45:19.899Z,83.10
2018-12-14T06:47:48.343Z,83.30
2018-12-14T06:50:16.795Z,83.60
2018-12-14T06:52:45.210Z,83.50
2018-12-14T06:55:13.631Z,84.10
2018-12-14T06:57:42.071Z,83.40
2018-12-14T07:00:10.628Z,83.50
2018-12-14T07:02:39.075Z,83.60
2018-12-14T07:05:07.611Z,83.20
2018-12-14T07:07:36.066Z,83.00
2018-12-14T07:10:04.998Z,82.90
2018-12-14T07:12:33.528Z,82.50
2018-12-14T07:15:01.979Z,82.50
2018-12-14T07:17:30.451Z,82.40
2018-12-14T07:19:58.863Z,82.60
2018-12-14T07:22:27.279Z,82.80
2018-12-14T07:24:55.743Z,82.40
2018-12-14T07:27:24.198Z,82.60
2018-12-14T07:29:52.942Z,82.20
2018-12-14T07:32:21.376Z,82.30
2018-12-14T07:34:49.951Z,82.30
2018-12-14T07:37:18.364Z,82.50
2018-12-14T07:39:46.829Z,82.30
2018-12-14T07:42:15.324Z,81.90
2018-12-14T07:44:43.852Z,82.10
2018-12-14T07:47:13.131Z,82.40
2018-12-14T07:49:41.547Z,82.90
2018-12-14T07:52:10.779Z,82.90
2018-12-14T07:54:39.196Z,82.70
2018-12-14T07:57:07.649Z,83.10
2018-12-14T07:59:36.075Z,83.00
2018-12-14T08:02:04.531Z,83.10
2018-12-14T08:04:33.820Z,83.10
2018-12-14T08:07:03.107Z,83.20
2018-12-14T08:09:31.579Z,83.20
2018-12-14T08:12:00.043Z,83.70
2018-12-14T08:14:28.476Z,82.80
2018-12-14T08:16:56.944Z,82.80
2018-12-14T08:19:25.405Z,82.90
2018-12-14T08:21:53.927Z,82.30
2018-12-14T08:24:22.375Z,81.90
2018-12-14T08:26:50.816Z,82.10
2018-12-14T08:29:19.232Z,82.40
2018-12-14T08:31:47.679Z,82.40
2018-12-14T08:34:16.119Z,82.40
2018-12-14T08:36:44.593Z,82.10
2018-12-14T08:39:13.003Z,82.00
2018-12-14T08:41:41.455Z,81.90
2018-12-14T08:44:09.895Z,81.40
2018-12-14T08:46:38.348Z,81.50
2018-12-14T08:49:06.763Z,81.30
2018-12-14T08:51:35.228Z,80.90
2018-12-14T08:54:03.703Z,81.50
2018-12-14T08:56:32.219Z,81.50
2018-12-14T08:59:00.644Z,81.30
2018-12-14T09:01:29.095Z,81.10
2018-12-14T09:03:57.543Z,80.80
2018-12-14T09:06:25.955Z,80.90
2018-12-14T09:08:54.411Z,80.70
2018-12-14T09:11:22.833Z,80.80
2018-12-14T09:13:51.307Z,80.60
2018-12-14T09:16:19.727Z,80.20
2018-12-14T09:18:48.178Z,80.10
2018-12-14T09:23:51.319Z,79.70
2018-12-14T09:26:19.742Z,79.80
2018-12-14T09:28:49.178Z,79.50
2018-12-14T09:31:18.539Z,79.50
2018-12-14T09:33:46.991Z,79.20
2018-12-14T09:36:15.447Z,79.70
2018-12-14T09:38:43.880Z,79.90
2018-12-14T09:41:16.219Z,80.10
2018-12-14T09:43:42.784Z,81.00
2018-12-14T09:46:11.271Z,79.90
2018-12-14T09:48:39.678Z,80.00
2018-12-14T09:51:12.294Z,79.40
2018-12-14T09:53:38.593Z,79.40
2018-12-14T09:56:07.052Z,79.80
2018-12-14T09:58:35.499Z,80.10
2018-12-14T10:01:03.923Z,80.40
2018-12-14T10:03:33.069Z,79.20
2018-12-14T10:06:01.523Z,79.40
2018-12-14T10:08:29.927Z,79.50
2018-12-14T10:10:59.975Z,78.90
2018-12-14T10:13:29.399Z,79.20
2018-12-14T10:15:58.631Z,78.80
2018-12-14T10:18:27.096Z,78.80
2018-12-14T10:20:55.581Z,79.10
2018-12-14T10:23:24.065Z,78.20
2018-12-14T10:25:52.507Z,78.40
2018-12-14T10:28:20.915Z,78.80
2018-12-14T10:30:49.379Z,79.80
2018-12-14T10:33:17.840Z,79.90
2018-12-14T10:35:46.409Z,79.50
2018-12-14T10:38:14.820Z,79.00
2018-12-14T10:40:43.332Z,79.30
2018-12-14T10:43:11.887Z,79.80
2018-12-14T10:45:41.123Z,78.50
2018-12-14T10:48:09.582Z,78.20
2018-12-14T10:50:39.671Z,78.10
2018-12-14T10:53:12.779Z,78.00
2018-12-14T10:55:41.559Z,78.80
2018-12-14T10:58:10.147Z,78.90
2018-12-14T11:00:43.805Z,78.70
2018-12-14T11:03:12.288Z,78.60
2018-12-14T11:05:40.726Z,78.30
2018-12-14T11:08:09.207Z,77.90
2018-12-14T11:10:37.616Z,77.30
2018-12-14T11:13:06.083Z,76.80
2018-12-14T11:15:35.395Z,77.20
2018-12-14T11:18:03.844Z,77.70
2018-12-14T11:20:32.287Z,77.90
2018-12-14T11:23:01.911Z,78.60
2018-12-14T11:25:30.319Z,78.30
2018-12-14T11:27:59.787Z,78.00
2018-12-14T11:30:28.192Z,77.70
2018-12-14T11:32:56.632Z,76.60
2018-12-14T11:35:25.083Z,77.50
2018-12-14T11:37:53.511Z,77.30
2018-12-14T11:40:21.917Z,78.50
2018-12-14T11:42:50.366Z,77.60
2018-12-14T11:45:18.830Z,77.70
2018-12-14T11:47:47.272Z,78.00
2018-12-14T11:50:15.740Z,76.70
2018-12-14T11:52:44.215Z,76.80
2018-12-14T11:55:12.783Z,76.80
2018-12-14T11:57:41.290Z,77.20
2018-12-14T12:00:13.623Z,78.10
2018-12-14T12:02:43.326Z,77.40
2018-12-14T12:05:12.547Z,78.50
2018-12-14T12:07:42.226Z,77.80
2018-12-14T12:10:11.468Z,78.60
2018-12-14T12:12:40.421Z,78.50
2018-12-14T12:15:09.720Z,78.30
2018-12-14T12:17:40.492Z,78.50
2018-12-14T12:20:09.340Z,78.30
2018-12-14T12:22:37.806Z,78.50
2018-12-14T12:25:06.497Z,79.00
2018-12-14T12:27:34.912Z,79.20
2018-12-14T12:30:04.215Z,79.30
2018-12-14T12:32:32.640Z,79.50
2018-12-14T12:35:01.143Z,79.60
2018-12-14T12:37:29.555Z,79.50
2018-12-14T12:39:57.961Z,79.50
2018-12-14T12:42:27.460Z,79.40
2018-12-14T12:44:55.875Z,78.60
2018-12-14T12:47:24.351Z,78.80
2018-12-14T12:49:52.812Z,78.70
2018-12-14T12:52:21.292Z,78.90
2018-12-14T12:54:49.704Z,78.70
2018-12-14T12:57:18.158Z,78.80
2018-12-14T12:59:46.587Z,79.70
2018-12-14T13:02:15.070Z,79.50
2018-12-14T13:04:44.327Z,79.90
2018-12-14T13:07:12.783Z,80.10
2018-12-14T13:09:41.276Z,80.10
2018-12-14T13:12:09.686Z,79.60
2018-12-14T13:14:40.199Z,80.40
2018-12-14T13:17:08.570Z,80.40
2018-12-14T13:19:37.018Z,80.80
2018-12-14T13:22:05.545Z,80.80
2018-12-14T13:24:34.008Z,80.70
2018-12-14T13:27:02.675Z,81.00
2018-12-14T13:29:31.116Z,80.90
2018-12-14T13:32:00.531Z,80.50
2018-12-14T13:34:28.995Z,80.40
2018-12-14T13:36:57.453Z,81.00
2018-12-14T13:39:25.876Z,81.00
2018-12-14T13:41:54.420Z,81.30
2018-12-14T13:44:22.970Z,81.10
2018-12-14T13:46:51.487Z,81.10
2018-12-14T13:49:19.959Z,81.00
2018-12-14T13:51:48.402Z,80.90
2018-12-14T13:54:16.843Z,80.20
2018-12-14T13:56:45.303Z,80.30
2018-12-14T13:59:13.747Z,80.30
2018-12-14T14:01:42.195Z,80.40
2018-12-14T14:04:10.647Z,80.40
2018-12-14T14:06:39.052Z,80.90
2018-12-14T14:09:07.507Z,80.40
2018-12-14T14:11:36.133Z,80.30
2018-12-14T14:14:04.727Z,81.00
2018-12-14T14:16:33.153Z,81.30
2018-12-14T14:19:01.723Z,82.20
2018-12-14T14:21:30.210Z,80.90
2018-12-14T14:23:58.611Z,80.90
2018-12-14T14:26:27.050Z,80.80
2018-12-14T14:28:55.471Z,81.10
2018-12-14T14:31:23.940Z,81.60
2018-12-14T14:33:52.403Z,81.40
2018-12-14T14:36:20.986Z,81.60
2018-12-14T14:38:49.523Z,81.60
2018-12-14T14:41:17.935Z,81.60
2018-12-14T14:43:46.651Z,81.60
2018-12-14T14:46:15.135Z,82.50
2018-12-14T14:48:43.623Z,81.30
2018-12-14T14:51:12.847Z,81.70
2018-12-14T14:53:41.307Z,82.40
2018-12-14T14:56:09.739Z,81.60
2018-12-14T14:58:38.183Z,81.70
2018-12-14T15:01:06.871Z,81.80
2018-12-14T15:03:35.387Z,81.90
2018-12-14T15:06:03.863Z,81.70
2018-12-14T15:08:32.330Z,82.00
2018-12-14T15:11:00.751Z,81.80
2018-12-14T15:13:31.360Z,81.40
2018-12-14T15:15:59.787Z,80.80
2018-12-14T15:18:28.240Z,81.20
2018-12-14T15:20:56.710Z,81.30
2018-12-14T15:23:25.138Z,81.20
2018-12-14T15:25:53.567Z,81.00
2018-12-14T15:28:21.983Z,81.30
2018-12-14T15:30:50.453Z,80.80
2018-12-14T15:33:18.971Z,80.60
2018-12-14T15:35:48.498Z,80.60
2018-12-14T15:38:16.987Z,80.80
2018-12-14T15:40:45.408Z,80.50
2018-12-14T15:43:13.899Z,80.50
2018-12-14T15:45:42.343Z,80.00
2018-12-14T15:48:10.803Z,79.70
2018-12-14T15:50:39.262Z,80.00
2018-12-14T15:59:55.775Z,80.00
2018-12-14T16:02:24.247Z,80.10
2018-12-14T16:04:52.696Z,80.20
2018-12-14T16:07:21.292Z,80.20
2018-12-14T16:09:49.859Z,80.80
2018-12-14T16:12:18.331Z,80.60
2018-12-14T16:14:46.775Z,81.70
2018-12-14T16:17:15.392Z,81.10
2018-12-14T16:19:44.597Z,80.90
2018-12-14T16:22:13.198Z,81.10
2018-12-14T16:24:41.766Z,80.90
2018-12-14T16:27:10.326Z,80.80
2018-12-14T16:29:38.818Z,80.70
2018-12-14T16:32:07.372Z,80.60
2018-12-14T16:34:35.919Z,80.50
2018-12-14T16:37:04.908Z,80.50
2018-12-14T16:39:33.356Z,80.80
2018-12-14T16:42:01.860Z,81.40
2018-12-14T16:44:30.388Z,80.30
2018-12-14T16:46:58.895Z,80.80
2018-12-14T16:49:27.379Z,80.50
2018-12-14T16:51:55.816Z,80.90
2018-12-14T16:54:24.315Z,80.80
2018-12-14T16:56:52.764Z,80.60
2018-12-14T16:59:21.279Z,80.60
2018-12-14T17:01:49.904Z,80.90
2018-12-14T17:04:18.327Z,81.10
2018-12-14T17:06:46.775Z,81.20
2018-12-14T17:09:15.195Z,81.30
2018-12-14T17:11:43.773Z,81.60
2018-12-14T17:14:12.351Z,81.60
2018-12-14T17:16:40.875Z,81.50
2018-12-14T17:19:09.295Z,81.40
2018-12-14T17:21:37.785Z,81.50
2018-12-14T17:24:06.350Z,81.50
2018-12-14T17:26:35.001Z,81.30
2018-12-14T17:29:03.663Z,80.90
2018-12-14T17:31:32.140Z,80.80
2018-12-14T17:34:00.719Z,80.90
2018-12-14T17:36:29.176Z,81.00
2018-12-14T17:38:57.595Z,80.70
2018-12-14T17:41:26.055Z,80.40
2018-12-14T17:43:54.488Z,80.40
2018-12-14T17:46:23.043Z,80.30
2018-12-14T17:48:51.503Z,80.60
2018-12-14T17:51:19.972Z,81.00
2018-12-14T17:53:48.432Z,81.10
2018-12-14T17:56:16.840Z,80.90
2018-12-14T17:58:45.303Z,81.40
2018-12-14T18:01:13.728Z,80.60
2018-12-14T18:03:42.263Z,80.60
2018-12-14T18:06:10.679Z,80.50
2018-12-14T18:08:39.101Z,80.50
2018-12-14T18:11:07.683Z,80.40
2018-12-14T18:13:36.116Z,80.40
2018-12-14T18:16:04.843Z,80.50
2018-12-14T18:18:33.263Z,80.60
2018-12-14T18:21:01.687Z,80.80
2018-12-14T18:23:30.223Z,80.70
2018-12-14T18:25:59.701Z,80.20
2018-12-14T18:28:28.168Z,80.40
2018-12-14T18:30:56.614Z,80.50
2018-12-14T18:33:25.040Z,80.50
2018-12-14T18:35:53.492Z,80.80
2018-12-14T18:38:21.963Z,80.80
2018-12-14T18:40:50.615Z,80.50
2018-12-14T18:43:19.033Z,80.30
2018-12-14T18:45:52.971Z,80.20
2018-12-14T18:48:17.997Z,80.20
2018-12-14T18:50:46.447Z,80.20
2018-12-14T18:53:15.040Z,80.40
2018-12-14T18:55:43.463Z,80.30
2018-12-14T18:58:11.927Z,80.40
2018-12-14T19:00:40.371Z,80.40
2018-12-14T19:03:08.842Z,80.60
2018-12-14T19:05:37.360Z,80.60
2018-12-14T19:08:05.835Z,80.40
2018-12-14T19:10:34.287Z,80.20
2018-12-14T19:13:02.756Z,80.20
2018-12-14T19:15:31.169Z,80.30
2018-12-14T19:18:00.683Z,80.00
2018-12-14T19:20:29.183Z,79.80
2018-12-14T19:22:57.611Z,79.60
2018-12-14T19:25:26.092Z,79.50
2018-12-14T19:27:54.547Z,79.30
2018-12-14T19:30:23.021Z,79.50
2018-12-14T19:32:51.467Z,79.10
2018-12-14T19:35:19.896Z,79.10
2018-12-14T19:37:48.495Z,79.60
2018-12-14T19:40:16.964Z,79.30
2018-12-14T19:42:45.816Z,79.30
2018-12-14T19:45:14.296Z,79.00
2018-12-14T19:47:42.788Z,79.00
2018-12-14T19:50:11.470Z,78.70
2018-12-14T19:52:39.933Z,78.60
2018-12-14T19:55:08.719Z,78.80
2018-12-14T19:57:37.186Z,79.00
2018-12-14T20:00:08.015Z,79.10
2018-12-14T20:02:36.591Z,79.00
2018-12-14T20:05:05.308Z,79.00
2018-12-14T20:07:33.815Z,79.10
2018-12-14T20:10:02.279Z,79.40
2018-12-14T20:12:30.699Z,79.40
2018-12-14T20:14:59.183Z,79.30
2018-12-14T20:17:27.658Z,79.10
2018-12-14T20:19:57.243Z,79.40
2018-12-14T20:22:25.678Z,79.40
2018-12-14T20:24:54.176Z,79.40
2018-12-14T20:27:22.889Z,79.40
2018-12-14T20:29:51.973Z,79.60
2018-12-14T20:32:20.543Z,79.80
2018-12-14T20:34:49.231Z,80.80
2018-12-14T20:37:17.825Z,80.60
2018-12-14T20:39:46.315Z,79.80
2018-12-14T20:42:14.770Z,79.70
2018-12-14T20:44:43.187Z,79.70
2018-12-14T20:47:11.655Z,79.40
2018-12-14T20:49:40.104Z,80.30
2018-12-14T20:52:08.539Z,79.50
2018-12-14T20:54:38.046Z,79.50
2018-12-14T20:57:06.656Z,79.40
2018-12-14T20:59:35.142Z,79.70
2018-12-14T21:02:03.699Z,79.80
2018-12-14T21:04:32.134Z,79.80
2018-12-14T21:07:00.647Z,79.80
2018-12-14T21:09:29.089Z,79.70
2018-12-14T21:11:57.553Z,79.80
2018-12-14T21:14:26.797Z,79.90
2018-12-14T21:16:55.327Z,80.00
2018-12-14T21:19:23.811Z,80.00
2018-12-14T21:21:52.243Z,80.00
2018-12-14T21:24:20.682Z,79.90
2018-12-14T21:26:49.100Z,80.10
2018-12-14T21:29:17.554Z,80.10
2018-12-14T21:31:46.017Z,80.10
2018-12-14T21:34:14.504Z,80.20
2018-12-14T21:36:42.978Z,80.30
2018-12-14T21:39:11.399Z,80.30
2018-12-14T21:41:39.926Z,80.50
2018-12-14T21:44:08.355Z,80.60
2018-12-14T21:46:36.836Z,80.60
2018-12-14T21:49:05.261Z,80.80
2018-12-14T21:51:33.928Z,80.80
2018-12-14T21:54:02.340Z,80.80
2018-12-14T21:56:30.827Z,80.90
2018-12-14T21:58:59.284Z,81.00
2018-12-14T22:01:27.719Z,80.90
2018-12-14T22:03:56.182Z,81.00
2018-12-14T22:06:24.691Z,82.00
2018-12-14T22:08:53.126Z,81.40
2018-12-14T22:11:21.576Z,81.60
2018-12-14T22:13:50.031Z,81.60
2018-12-14T22:16:18.499Z,81.70
2018-12-14T22:18:46.909Z,81.70
2018-12-14T22:21:15.346Z,81.60
2018-12-14T22:23:43.900Z,81.50
2018-12-14T22:26:12.298Z,81.50
2018-12-14T22:28:40.907Z,81.60
2018-12-14T22:31:09.359Z,81.60
2018-12-14T22:33:37.820Z,81.70
2018-12-14T22:36:06.254Z,82.70
2018-12-14T22:38:34.745Z,81.90
2018-12-14T22:41:03.219Z,82.00
2018-12-14T22:43:31.676Z,82.00
2018-12-14T22:46:00.131Z,81.90
2018-12-14T22:48:28.613Z,82.00
2018-12-14T22:50:57.088Z,82.10
2018-12-14T22:53:25.536Z,82.20
2018-12-14T22:55:53.995Z,82.00
2018-12-14T22:58:22.417Z,82.00
2018-12-14T23:00:53.231Z,81.70
2018-12-14T23:03:22.007Z,82.20
2018-12-14T23:05:50.842Z,82.30
2018-12-14T23:08:19.305Z,82.50
2018-12-14T23:10:48.787Z,82.50
2018-12-14T23:13:17.247Z,82.30
2018-12-14T23:15:45.704Z,82.50
2018-12-14T23:18:14.131Z,82.40
2018-12-14T23:20:42.627Z,82.60
2018-12-14T23:23:11.119Z,82.70
2018-12-14T23:25:39.703Z,82.60
2018-12-14T23:28:08.171Z,82.70
2018-12-14T23:30:36.628Z,82.70
2018-12-14T23:33:05.038Z,83.00
2018-12-14T23:35:33.511Z,83.00
2018-12-14T23:38:01.939Z,83.00
2018-12-14T23:47:17.387Z,83.00
2018-12-14T23:49:45.803Z,82.90
2018-12-14T23:52:14.220Z,82.90
2018-12-14T23:54:42.699Z,83.00
2018-12-14T23:57:12.354Z,82.90
2018-12-14T23:59:41.586Z,83.00
